Time;durP1;ratioP1;P1;durP2;ratioP2;P2;SDS_P1;SDS_P2;PMS_P1;PMS_P2;Temp;Humidity;BMP_temperature;BMP_pressure;BME280_temperature;BME280_humidity;BME280_pressure;Samples;Min_cycle;Max_cycle;Signal;HPM_P1;HPM_P2
2021/09/08 00:01:14;;;;;;;16.88;10.55;;;;;;;20.01;51.04;101909.94;4942209;28;124423;-70
2021/09/08 00:03:42;;;;;;;19.23;10.75;;;;;;;19.99;50.93;101915.41;4947175;28;123866;-70
2021/09/08 00:06:09;;;;;;;17.20;10.13;;;;;;;19.97;51.10;101913.81;4937719;28;115443;-70
2021/09/08 00:08:36;;;;;;;18.73;11.13;;;;;;;19.93;50.99;101910.47;4943322;28;113889;-70
2021/09/08 00:11:03;;;;;;;16.20;10.32;;;;;;;19.91;51.46;101914.19;4946433;28;123820;-70
2021/09/08 00:13:30;;;;;;;19.17;10.88;;;;;;;19.88;51.44;101904.53;4934885;28;124022;-70
2021/09/08 00:15:58;;;;;;;19.08;10.95;;;;;;;19.86;51.35;101906.47;4937800;28;113365;-71
2021/09/08 00:18:25;;;;;;;18.58;10.65;;;;;;;19.84;51.36;101903.00;4942013;28;114037;-70
2021/09/08 00:20:52;;;;;;;17.98;10.75;;;;;;;19.81;51.54;101903.22;4920870;28;124103;-71
2021/09/08 00:23:19;;;;;;;16.75;9.95;;;;;;;19.78;51.39;101908.81;4943295;28;123701;-70
2021/09/08 00:25:46;;;;;;;18.00;10.85;;;;;;;19.76;51.60;101899.97;4948840;28;115096;-70
2021/09/08 00:28:13;;;;;;;19.45;10.75;;;;;;;19.74;51.81;101901.91;4945128;28;114977;-70
2021/09/08 00:30:40;;;;;;;17.58;11.20;;;;;;;19.70;51.83;101889.59;4942174;28;124017;-71
2021/09/08 00:33:08;;;;;;;18.50;10.57;;;;;;;19.69;51.78;101894.13;4941649;28;122863;-70
2021/09/08 00:35:36;;;;;;;19.33;10.38;;;;;;;19.66;51.77;101888.94;4940572;28;114346;-71
2021/09/08 00:38:03;;;;;;;18.67;10.32;;;;;;;19.64;52.00;101889.03;4944400;28;114309;-71
2021/09/08 00:40:30;;;;;;;17.77;10.23;;;;;;;19.62;51.89;101888.28;4940295;28;124650;-70
2021/09/08 00:42:59;;;;;;;18.88;10.65;;;;;;;19.59;52.17;101883.13;4920137;28;123415;-70
2021/09/08 00:45:26;;;;;;;18.67;10.98;;;;;;;19.56;52.15;101883.31;4941369;28;114601;-70
2021/09/08 00:47:53;;;;;;;18.00;10.68;;;;;;;19.55;52.12;101886.09;4944655;28;115208;-70
2021/09/08 00:50:20;;;;;;;17.35;10.27;;;;;;;19.53;52.31;101880.81;4941261;28;123886;-70
2021/09/08 00:52:48;;;;;;;18.02;10.35;;;;;;;19.51;52.21;101882.75;4942030;28;124118;-70
2021/09/08 00:55:19;;;;;;;22.38;10.15;;;;;;;19.50;52.55;101889.09;4943627;28;114444;-70
2021/09/08 00:57:46;;;;;;;16.25;10.05;;;;;;;19.49;52.46;101884.69;4939720;28;112692;-70
2021/09/08 01:00:15;;;;;;;17.40;10.75;;;;;;;19.47;52.64;101883.94;4940907;28;124752;-70
2021/09/08 01:02:43;;;;;;;18.17;10.75;;;;;;;19.45;52.57;101875.09;4937367;28;124078;-70
2021/09/08 01:05:12;;;;;;;17.63;10.60;;;;;;;19.42;52.77;101872.59;4937132;28;115294;-70
2021/09/08 01:07:41;;;;;;;17.83;10.48;;;;;;;19.41;52.76;101878.97;4940528;28;113916;-70
2021/09/08 01:10:08;;;;;;;17.60;10.88;;;;;;;19.42;52.98;101880.66;4943367;28;124434;-70
2021/09/08 01:12:36;;;;;;;19.70;11.00;;;;;;;19.40;52.99;101871.84;4938181;28;124200;-70
2021/09/08 01:15:04;;;;;;;18.27;10.30;;;;;;;19.41;52.99;101873.59;4941910;28;114379;-70
2021/09/08 01:17:32;;;;;;;19.58;10.88;;;;;;;19.42;53.02;101877.97;4944525;28;115205;-70
2021/09/08 01:19:59;;;;;;;19.80;11.50;;;;;;;19.43;52.85;101877.03;4916598;28;123887;-70
2021/09/08 01:22:31;;;;;;;20.38;11.50;;;;;;;19.42;53.07;101869.94;4942723;28;123890;-71
2021/09/08 01:24:58;;;;;;;18.50;11.10;;;;;;;19.43;53.10;101871.66;4941887;28;113985;-71
2021/09/08 01:27:26;;;;;;;18.45;10.80;;;;;;;19.43;52.90;101861.78;4924518;28;113775;-70
2021/09/08 01:29:53;;;;;;;18.70;11.30;;;;;;;19.43;53.11;101871.66;4933269;28;125302;-71
2021/09/08 01:32:30;;;;;;;16.10;10.40;;;;;;;19.40;53.13;101869.16;4941002;28;122672;-70
2021/09/08 01:34:57;;;;;;;18.08;9.82;;;;;;;19.38;53.03;101865.72;4940556;28;114861;-70
2021/09/08 01:37:24;;;;;;;18.75;10.80;;;;;;;19.35;53.05;101863.25;4959230;28;113384;-71
2021/09/08 01:39:51;;;;;;;20.33;11.23;;;;;;;19.31;53.12;101861.72;4938703;28;123533;-70
2021/09/08 01:42:18;;;;;;;20.15;11.05;;;;;;;19.29;53.25;101858.25;4943662;28;123840;-71
2021/09/08 01:44:45;;;;;;;16.42;10.05;;;;;;;19.25;53.21;101858.50;4942637;28;114795;-70
2021/09/08 01:47:12;;;;;;;17.52;10.32;;;;;;;19.26;53.35;101860.19;4936266;28;114163;-71
2021/09/08 01:49:40;;;;;;;19.30;11.05;;;;;;;19.26;53.27;101860.19;4944100;28;124734;-69
2021/09/08 01:52:07;;;;;;;18.27;10.90;;;;;;;19.26;53.39;101853.97;4928995;28;124131;-68
2021/09/08 01:54:34;;;;;;;18.67;10.57;;;;;;;19.24;53.33;101854.06;4934357;28;114137;-68
2021/09/08 01:57:01;;;;;;;18.25;10.65;;;;;;;19.24;53.38;101851.38;4945392;28;113885;-68
2021/09/08 01:59:28;;;;;;;18.92;10.13;;;;;;;19.24;53.30;101851.38;4942294;28;123797;-68
2021/09/08 02:01:55;;;;;;;17.70;10.48;;;;;;;19.24;53.49;101846.00;4935350;28;123647;-68
2021/09/08 02:04:22;;;;;;;21.38;10.80;;;;;;;19.22;53.54;101842.56;4932070;28;115139;-68
2021/09/08 02:06:52;;;;;;;19.17;11.30;;;;;;;19.20;53.55;101843.63;4940470;28;114760;-68
2021/09/08 02:09:22;;;;;;;20.08;10.95;;;;;;;19.16;53.76;101842.13;4952010;28;123414;-68
2021/09/08 02:11:49;;;;;;;18.35;10.60;;;;;;;19.14;53.46;101844.03;4944166;28;123980;-68
2021/09/08 02:14:18;;;;;;;20.55;11.30;;;;;;;19.11;53.64;101839.72;4941862;28;113847;-68
2021/09/08 02:16:45;;;;;;;19.23;11.27;;;;;;;19.10;53.72;101843.38;4938659;28;114150;-68
2021/09/08 02:19:12;;;;;;;19.65;11.35;;;;;;;19.09;53.71;101846.16;4931334;28;124016;-68
2021/09/08 02:21:39;;;;;;;18.90;10.82;;;;;;;19.10;53.50;101854.13;4940352;28;123401;-69
2021/09/08 02:24:06;;;;;;;19.90;10.45;;;;;;;19.09;53.70;101852.38;4936241;28;114310;-68
2021/09/08 02:26:33;;;;;;;17.45;10.57;;;;;;;19.07;53.53;101848.94;4940025;28;113978;-68
2021/09/08 02:29:00;;;;;;;18.77;11.02;;;;;;;19.05;53.43;101851.72;4933749;28;123594;-68
2021/09/08 02:31:28;;;;;;;16.95;10.40;;;;;;;19.05;53.47;101850.88;4941440;28;123752;-68
2021/09/08 02:33:56;;;;;;;17.88;10.73;;;;;;;19.02;53.59;101845.69;4937021;28;113117;-68
2021/09/08 02:36:24;;;;;;;17.95;10.52;;;;;;;19.01;53.42;101854.72;4940908;28;113862;-68
2021/09/08 02:38:52;;;;;;;20.23;11.07;;;;;;;18.99;53.63;101843.22;4944587;28;124026;-69
2021/09/08 02:41:20;;;;;;;18.23;10.98;;;;;;;18.94;53.87;101842.66;4954405;28;123696;-69
2021/09/08 02:43:47;;;;;;;21.77;11.65;;;;;;;18.90;53.64;101841.97;4951445;28;114489;-67
2021/09/08 02:46:14;;;;;;;19.60;11.43;;;;;;;18.84;53.84;101832.50;4941118;28;113003;-68
2021/09/08 02:48:41;;;;;;;17.95;10.95;;;;;;;18.81;54.06;101837.19;4945481;28;123795;-68
2021/09/08 02:51:08;;;;;;;19.83;11.38;;;;;;;18.78;54.22;101832.88;4940931;28;124550;-68
2021/09/08 02:53:36;;;;;;;20.48;12.07;;;;;;;18.74;54.15;101825.97;4945921;28;114873;-68
2021/09/08 02:56:04;;;;;;;23.45;11.65;;;;;;;18.73;54.50;101828.75;4917137;28;114103;-68
2021/09/08 02:58:31;;;;;;;19.77;11.77;;;;;;;18.70;54.42;101829.78;4945982;28;123945;-68
2021/09/08 03:00:58;;;;;;;18.65;11.63;;;;;;;18.70;54.64;101824.41;4940057;28;123738;-68
2021/09/08 03:03:26;;;;;;;23.15;12.20;;;;;;;18.70;54.56;101829.78;4950023;28;114309;-68
2021/09/08 03:05:53;;;;;;;20.73;11.68;;;;;;;18.71;54.77;101826.16;4939739;28;114041;-68
2021/09/08 03:08:20;;;;;;;21.30;12.07;;;;;;;18.71;54.72;101831.53;4941973;28;124096;-68
2021/09/08 03:10:48;;;;;;;19.33;11.77;;;;;;;18.72;54.72;101827.88;4935341;28;124068;-68
2021/09/08 03:13:17;;;;;;;21.27;11.55;;;;;;;18.73;54.87;101824.22;4943006;28;114376;-68
2021/09/08 03:15:45;;;;;;;21.70;12.32;;;;;;;18.71;54.91;101819.94;4942024;28;114500;-68
2021/09/08 03:18:13;;;;;;;23.42;12.88;;;;;;;18.70;54.90;101821.72;4941431;28;122536;-68
2021/09/08 03:20:40;;;;;;;21.35;12.63;;;;;;;18.67;54.75;101822.81;4940669;28;124760;-68
2021/09/08 03:23:07;;;;;;;21.83;12.38;;;;;;;18.64;54.92;101814.94;4942646;28;113805;-68
2021/09/08 03:25:36;;;;;;;22.60;11.55;;;;;;;18.63;55.00;101815.06;4941907;28;112966;-68
2021/09/08 03:28:03;;;;;;;23.17;12.10;;;;;;;18.60;55.13;101812.56;4947741;28;124313;-69
2021/09/08 03:30:30;;;;;;;20.45;11.25;;;;;;;18.57;55.00;101808.25;4944304;28;124460;-68
2021/09/08 03:32:57;;;;;;;19.00;11.82;;;;;;;18.57;54.90;101808.25;4943638;28;113575;-69
2021/09/08 03:35:25;;;;;;;20.23;11.50;;;;;;;18.58;55.13;101806.44;4956259;28;114214;-68
2021/09/08 03:37:52;;;;;;;21.40;11.90;;;;;;;18.58;54.92;101803.75;4941534;28;123962;-68
2021/09/08 03:40:19;;;;;;;19.30;11.55;;;;;;;18.57;55.03;101802.00;4935969;28;124139;-68
2021/09/08 03:42:46;;;;;;;21.67;11.98;;;;;;;18.57;55.10;101802.00;4938425;28;115449;-68
2021/09/08 03:45:14;;;;;;;20.00;11.68;;;;;;;18.57;55.13;101802.00;4953233;28;114935;-69
2021/09/08 03:47:42;;;;;;;21.85;12.50;;;;;;;18.57;55.16;101796.66;4941233;28;123846;-68
2021/09/08 03:50:10;;;;;;;21.10;11.85;;;;;;;18.56;55.08;101790.44;4944885;28;123907;-69
2021/09/08 03:52:37;;;;;;;17.95;10.65;;;;;;;18.58;54.96;101793.00;4935203;28;114500;-68
2021/09/08 03:55:06;;;;;;;20.08;11.40;;;;;;;18.58;54.94;101790.34;4940341;28;113352;-69
2021/09/08 03:57:34;;;;;;;20.05;11.23;;;;;;;18.57;54.79;101785.91;4939271;28;124094;-69
2021/09/08 04:00:07;;;;;;;22.58;12.35;;;;;;;18.57;54.90;101788.59;4955666;28;124537;-68
2021/09/08 04:02:34;;;;;;;19.10;11.10;;;;;;;18.54;54.88;101786.13;4936655;28;114820;-69
2021/09/08 04:05:02;;;;;;;21.38;12.00;;;;;;;18.52;54.97;101777.31;4945513;28;112873;-69
2021/09/08 04:07:31;;;;;;;19.15;11.48;;;;;;;18.50;54.90;101785.47;4946281;28;124013;-69
2021/09/08 04:09:58;;;;;;;22.48;12.05;;;;;;;18.47;54.95;101783.81;4946476;28;124201;-69
2021/09/08 04:12:25;;;;;;;21.30;11.68;;;;;;;18.46;55.23;101784.78;4940415;28;114120;-69
2021/09/08 04:14:53;;;;;;;23.00;12.45;;;;;;;18.44;55.12;101781.34;4978749;22;114389;-64
2021/09/08 04:17:21;;;;;;;21.27;12.00;;;;;;;18.40;55.20;101779.81;4968270;28;123818;-64
2021/09/08 04:19:48;;;;;;;20.92;11.32;;;;;;;18.39;55.36;101782.59;4969348;28;124343;-64
2021/09/08 04:22:16;;;;;;;22.25;12.27;;;;;;;18.36;55.34;101772.91;4966558;28;114910;-65
2021/09/08 04:24:43;;;;;;;22.65;12.43;;;;;;;18.33;55.63;101778.47;4972554;28;113937;-64
2021/09/08 04:27:10;;;;;;;20.67;11.85;;;;;;;18.29;55.41;101776.94;4971075;28;124458;-64
2021/09/08 04:29:38;;;;;;;22.00;12.60;;;;;;;18.28;55.50;101772.53;4970301;28;123980;-64
2021/09/08 04:32:05;;;;;;;22.50;12.13;;;;;;;18.25;55.57;101775.41;4972208;28;115067;-64
2021/09/08 04:34:33;;;;;;;21.58;11.27;;;;;;;18.26;55.59;101771.78;4967156;28;115372;-64
2021/09/08 04:37:00;;;;;;;20.80;12.23;;;;;;;18.24;55.49;101768.31;4971199;28;124020;-64
2021/09/08 04:39:27;;;;;;;23.23;12.25;;;;;;;18.23;55.63;101766.59;4969170;28;123729;-64
2021/09/08 04:41:54;;;;;;;21.02;11.70;;;;;;;18.20;55.50;101767.66;4967479;28;114662;-64
2021/09/08 04:44:21;;;;;;;22.63;12.70;;;;;;;18.18;55.69;101774.06;4969846;28;113933;-64
2021/09/08 04:46:48;;;;;;;21.63;12.43;;;;;;;18.17;55.79;101766.97;4972424;28;124255;-64
2021/09/08 04:49:15;;;;;;;23.95;12.63;;;;;;;18.15;56.18;101774.25;4967715;28;124195;-64
2021/09/08 04:51:42;;;;;;;21.30;12.68;;;;;;;18.11;55.85;101772.72;4968846;28;114079;-64
2021/09/08 04:54:12;;;;;;;24.10;13.10;;;;;;;18.09;55.91;101771.00;4968719;28;114228;-64
2021/09/08 04:56:39;;;;;;;21.80;12.75;;;;;;;18.06;55.91;101771.19;4971263;28;124072;-64
2021/09/08 04:59:06;;;;;;;22.42;13.10;;;;;;;18.05;55.98;101769.47;4969709;28;124045;-64
2021/09/08 05:01:33;;;;;;;21.35;12.13;;;;;;;18.06;56.04;101770.31;4964658;28;114131;-64
2021/09/08 05:04:01;;;;;;;24.45;13.68;;;;;;;18.05;56.18;101773.97;4968544;28;113893;-64
2021/09/08 05:06:28;;;;;;;25.40;13.80;;;;;;;18.04;56.40;101770.41;4969471;28;124470;-64
2021/09/08 05:08:56;;;;;;;21.92;13.13;;;;;;;18.05;56.45;101769.47;4966308;28;124273;-64
2021/09/08 05:11:23;;;;;;;25.52;13.27;;;;;;;18.05;56.46;101769.47;4973093;28;114454;-64
2021/09/08 05:13:50;;;;;;;23.30;12.80;;;;;;;18.06;56.46;101765.84;4970634;28;114059;-64
2021/09/08 05:16:17;;;;;;;23.42;12.95;;;;;;;18.06;56.42;101768.53;4967413;28;124660;-64
2021/09/08 05:18:45;;;;;;;25.13;12.80;;;;;;;18.08;56.57;101763.03;4968085;28;123937;-64
2021/09/08 05:21:12;;;;;;;22.00;11.70;;;;;;;18.11;56.51;101767.38;4967823;28;117212;-64
2021/09/08 05:23:39;;;;;;;22.90;12.88;;;;;;;18.13;56.49;101770.81;4967095;28;114862;-64
2021/09/08 05:26:11;;;;;;;26.38;13.57;;;;;;;18.14;56.50;101767.16;4965863;28;124708;-64
2021/09/08 05:28:38;;;;;;;21.63;12.82;;;;;;;18.15;56.47;101768.91;4966149;28;124638;-64
2021/09/08 05:31:05;;;;;;;23.65;13.13;;;;;;;18.14;56.46;101768.03;4965888;28;114862;-64
2021/09/08 05:33:32;;;;;;;23.08;12.75;;;;;;;18.14;56.42;101767.16;4969221;28;114021;-65
2021/09/08 05:36:00;;;;;;;22.90;13.10;;;;;;;18.15;56.54;101766.22;4971313;28;124059;-65
2021/09/08 05:38:27;;;;;;;22.60;13.45;;;;;;;18.15;56.46;101768.91;4971743;28;123739;-65
2021/09/08 05:40:54;;;;;;;23.50;13.38;;;;;;;18.16;56.64;101765.25;4966282;28;114335;-65
2021/09/08 05:43:21;;;;;;;24.85;13.32;;;;;;;18.19;56.75;101759.69;4970687;28;114426;-65
2021/09/08 05:45:48;;;;;;;24.58;13.35;;;;;;;18.20;56.51;101766.81;4970466;28;123932;-66
2021/09/08 05:48:15;;;;;;;22.67;13.18;;;;;;;18.20;56.65;101751.56;4966569;28;122933;-65
2021/09/08 05:50:42;;;;;;;24.70;13.32;;;;;;;18.22;56.75;101759.53;4968179;28;113488;-65
2021/09/08 05:53:10;;;;;;;21.58;12.63;;;;;;;18.24;56.69;101754.91;4966917;28;114333;-65
2021/09/08 05:55:37;;;;;;;23.80;13.05;;;;;;;18.26;56.81;101755.69;4967342;28;123897;-65
2021/09/08 05:58:04;;;;;;;27.00;13.65;;;;;;;18.28;56.82;101765.34;4967565;28;124043;-65
2021/09/08 06:00:31;;;;;;;22.25;13.05;;;;;;;18.31;57.04;101758.94;4967174;28;114379;-65
2021/09/08 06:02:59;;;;;;;23.73;13.32;;;;;;;18.32;56.86;101755.28;4966140;28;114777;-65
2021/09/08 06:05:26;;;;;;;22.75;12.65;;;;;;;18.35;57.15;101752.41;4969630;28;124150;-65
2021/09/08 06:07:53;;;;;;;22.98;13.27;;;;;;;18.39;57.18;101756.63;4967653;28;124609;-65
2021/09/08 06:10:21;;;;;;;21.67;12.85;;;;;;;18.43;57.13;101755.47;4961003;28;116005;-65
2021/09/08 06:12:48;;;;;;;25.45;13.35;;;;;;;18.47;57.31;101759.66;4965537;28;115328;-65
2021/09/08 06:15:17;;;;;;;23.35;13.15;;;;;;;18.53;57.34;101763.78;4969151;28;124151;-66
2021/09/08 06:17:44;;;;;;;23.45;12.70;;;;;;;18.59;57.38;101762.53;4967271;28;124375;-65
2021/09/08 06:20:11;;;;;;;21.08;12.48;;;;;;;18.67;57.50;101760.22;4961847;28;114267;-65
2021/09/08 06:22:39;;;;;;;22.45;12.73;;;;;;;18.74;57.64;101761.56;4969420;28;115085;-65
2021/09/08 06:25:07;;;;;;;25.00;12.48;;;;;;;18.81;57.78;101746.78;4967578;28;125474;-65
2021/09/08 06:27:36;;;;;;;22.40;12.07;;;;;;;18.89;57.53;101748.13;4966878;28;124095;-65
2021/09/08 06:30:07;;;;;;;24.85;13.45;;;;;;;18.98;57.72;101750.19;4963811;28;114100;-65
2021/09/08 06:32:34;;;;;;;24.05;12.52;;;;;;;19.07;57.69;101752.28;4962428;28;114591;-65
2021/09/08 06:35:02;;;;;;;21.88;12.45;;;;;;;19.18;57.92;101744.38;4961884;28;124059;-66
2021/09/08 06:37:29;;;;;;;21.70;12.50;;;;;;;19.33;58.15;101755.06;4969467;28;124003;-65
2021/09/08 06:39:57;;;;;;;21.23;12.23;;;;;;;19.46;58.03;101747.88;4968726;28;114628;-65
2021/09/08 06:42:24;;;;;;;22.40;13.00;;;;;;;19.61;57.94;101745.97;4969848;28;113843;-65
2021/09/08 06:44:54;;;;;;;21.25;12.18;;;;;;;19.77;58.02;101740.41;4970686;28;124043;-65
2021/09/08 06:47:24;;;;;;;21.40;11.73;;;;;;;19.92;57.79;101739.34;4968514;28;123733;-66
2021/09/08 06:49:52;;;;;;;20.92;12.38;;;;;;;20.06;57.75;101740.19;4979713;28;113159;-65
2021/09/08 06:52:20;;;;;;;21.50;11.57;;;;;;;20.21;57.64;101739.09;4972249;28;114302;-65
2021/09/08 06:54:47;;;;;;;22.30;11.95;;;;;;;20.37;57.31;101734.31;4969913;28;124163;-65
2021/09/08 06:57:16;;;;;;;19.88;11.80;;;;;;;20.53;57.09;101734.09;4979213;28;123328;-65
2021/09/08 06:59:44;;;;;;;21.50;11.98;;;;;;;20.70;57.08;101735.56;4970316;28;116216;-65
2021/09/08 07:02:11;;;;;;;21.05;12.00;;;;;;;20.82;56.83;101733.81;4968986;28;114632;-66
2021/09/08 07:04:39;;;;;;;21.02;11.95;;;;;;;20.95;56.72;101728.38;4969724;28;123874;-66
2021/09/08 07:07:06;;;;;;;22.95;11.50;;;;;;;21.04;56.44;101733.06;4965348;28;123788;-65
2021/09/08 07:09:34;;;;;;;19.42;11.48;;;;;;;21.14;56.40;101723.31;4968912;28;113377;-64
2021/09/08 07:12:01;;;;;;;21.55;11.40;;;;;;;21.26;56.35;101720.66;4967571;28;113902;-64
2021/09/08 07:14:28;;;;;;;18.60;11.27;;;;;;;21.37;56.30;101718.00;4971411;28;124484;-64
2021/09/08 07:16:55;;;;;;;20.65;11.27;;;;;;;21.49;56.04;101717.09;4972463;28;123824;-64
2021/09/08 07:19:22;;;;;;;20.70;11.30;;;;;;;21.62;55.93;101716.13;4967675;28;114261;-64
2021/09/08 07:21:49;;;;;;;18.38;10.70;;;;;;;21.72;55.79;101715.28;4964820;28;114033;-65
2021/09/08 07:24:16;;;;;;;20.50;10.95;;;;;;;21.85;55.84;101701.69;4968419;28;123969;-65
2021/09/08 07:26:44;;;;;;;20.35;11.18;;;;;;;22.03;55.26;101703.91;4970761;28;122700;-65
2021/09/08 07:29:12;;;;;;;18.50;11.07;;;;;;;22.18;55.08;101697.28;4970546;28;114321;-65
2021/09/08 07:31:39;;;;;;;18.52;10.80;;;;;;;22.33;54.86;101701.44;4964169;28;114294;-65
2021/09/08 07:34:06;;;;;;;18.00;10.70;;;;;;;22.41;54.68;101689.19;4969389;28;124163;-65
2021/09/08 07:36:33;;;;;;;18.65;11.00;;;;;;;22.51;54.56;101692.84;4968436;28;124421;-65
2021/09/08 07:39:01;;;;;;;17.48;10.45;;;;;;;22.63;54.37;101697.22;4968630;28;114119;-64
2021/09/08 07:41:28;;;;;;;19.27;10.60;;;;;;;22.77;54.24;101695.22;4966821;28;114090;-66
2021/09/08 07:43:55;;;;;;;15.23;9.68;;;;;;;22.89;53.93;101691.50;4965231;28;124318;-65
2021/09/08 07:46:22;;;;;;;17.42;10.13;;;;;;;23.03;53.83;101699.31;4970439;28;123830;-65
2021/09/08 07:48:50;;;;;;;16.98;9.48;;;;;;;23.16;53.60;101701.84;4967165;28;115905;-66
2021/09/08 07:51:17;;;;;;;17.63;9.90;;;;;;;23.28;53.60;101698.13;4990763;28;114082;-65
2021/09/08 07:53:44;;;;;;;18.70;9.73;;;;;;;23.41;52.97;101695.19;4987554;28;123165;-66
2021/09/08 07:56:11;;;;;;;15.60;9.57;;;;;;;23.52;52.94;101695.13;4953693;28;123260;-65
2021/09/08 07:58:39;;;;;;;16.63;9.48;;;;;;;23.67;52.79;101689.38;4970937;28;114077;-66
2021/09/08 08:01:06;;;;;;;18.13;10.73;;;;;;;23.81;52.48;101694.47;4973086;28;113842;-66
2021/09/08 08:03:33;;;;;;;16.70;9.52;;;;;;;23.95;52.09;101692.41;4977921;28;122932;-66
2021/09/08 08:06:00;;;;;;;16.67;9.35;;;;;;;24.05;51.79;101696.00;4969984;28;123733;-66
2021/09/08 08:08:28;;;;;;;16.50;10.07;;;;;;;24.14;51.50;101689.75;4964650;28;114189;-66
2021/09/08 08:10:55;;;;;;;16.83;9.68;;;;;;;24.23;51.41;101688.09;4963655;28;113869;-66
2021/09/08 08:13:22;;;;;;;14.90;9.82;;;;;;;24.34;51.28;101681.72;4963378;28;124065;-65
2021/09/08 08:15:49;;;;;;;17.95;9.63;;;;;;;24.48;51.33;101686.72;4954168;28;122671;-65
2021/09/08 08:18:16;;;;;;;14.98;9.82;;;;;;;24.63;51.39;101690.75;4972580;28;113450;-66
2021/09/08 08:20:44;;;;;;;16.25;10.05;;;;;;;24.77;51.24;101680.50;4965412;28;114605;-66
2021/09/08 08:23:14;;;;;;;16.95;9.95;;;;;;;24.90;50.24;101681.09;4973754;28;124107;-66
2021/09/08 08:25:41;;;;;;;14.95;9.30;;;;;;;24.96;49.99;101685.97;4971830;28;122905;-66
2021/09/08 08:28:08;;;;;;;15.82;9.45;;;;;;;25.01;49.75;101686.34;4971273;28;114427;-66
2021/09/08 08:30:36;;;;;;;13.02;9.00;;;;;;;25.06;49.37;101686.78;4974678;28;114356;-66
2021/09/08 08:33:04;;;;;;;15.02;9.45;;;;;;;25.10;49.28;101695.50;4965170;28;124382;-66
2021/09/08 08:35:33;;;;;;;16.70;9.48;;;;;;;25.13;49.31;101691.63;4968419;28;124829;-66
2021/09/08 08:38:00;;;;;;;13.75;8.75;;;;;;;25.24;49.49;101684.25;4989181;28;114126;-66
2021/09/08 08:40:31;;;;;;;14.45;9.60;;;;;;;25.34;49.34;101689.66;4968510;28;115211;-66
2021/09/08 08:42:59;;;;;;;16.60;9.18;;;;;;;25.43;48.82;101680.66;4968333;28;123899;-66
2021/09/08 08:45:28;;;;;;;15.20;9.13;;;;;;;25.51;48.74;101679.06;4972463;28;124588;-66
2021/09/08 08:47:57;;;;;;;14.90;9.13;;;;;;;25.56;48.37;101676.75;4973569;28;114310;-64
2021/09/08 08:50:26;;;;;;;15.85;9.48;;;;;;;25.63;48.68;101677.88;4968944;28;114291;-66
2021/09/08 08:52:54;;;;;;;15.43;9.68;;;;;;;25.70;48.65;101678.16;4967394;28;124816;-66
2021/09/08 08:55:22;;;;;;;15.52;9.10;;;;;;;25.79;48.63;101675.41;4972304;28;124408;-64
2021/09/08 08:57:50;;;;;;;16.38;9.05;;;;;;;25.89;48.11;101671.81;4971264;28;114843;-64
2021/09/08 09:00:19;;;;;;;15.38;9.50;;;;;;;25.98;48.12;101670.94;4970132;28;114324;-64
2021/09/08 09:02:48;;;;;;;13.90;8.90;;;;;;;26.08;47.77;101671.72;4968712;28;124766;-64
2021/09/08 09:05:31;;;;;;;16.65;9.68;;;;;;;26.18;47.67;101677.97;4966378;28;124236;-64
2021/09/08 09:07:58;;;;;;;14.07;9.07;;;;;;;26.25;47.60;101655.66;4966690;28;114906;-64
2021/09/08 09:10:26;;;;;;;14.20;8.93;;;;;;;26.34;47.53;101671.03;4970696;28;113022;-64
2021/09/08 09:12:54;;;;;;;15.98;9.48;;;;;;;26.45;47.53;101668.09;4968285;28;124111;-64
2021/09/08 09:15:23;;;;;;;14.75;9.52;;;;;;;26.55;46.66;101662.59;4973152;28;123743;-64
2021/09/08 09:17:53;;;;;;;17.00;10.07;;;;;;;26.63;46.65;101664.56;4967223;28;114490;-64
2021/09/08 09:20:26;;;;;;;17.35;8.98;;;;;;;26.68;46.64;101662.25;4962875;28;114133;-64
2021/09/08 09:22:55;;;;;;;15.00;9.15;;;;;;;26.72;46.58;101655.50;4968002;28;124067;-64
2021/09/08 09:25:28;;;;;;;16.40;9.30;;;;;;;26.78;45.83;101657.56;4970613;28;124233;-65
2021/09/08 09:28:00;;;;;;;13.90;9.20;;;;;;;26.84;46.27;101646.06;4972445;28;116013;-65
2021/09/08 09:30:30;;;;;;;13.93;9.35;;;;;;;26.91;45.87;101646.31;4970797;28;113811;-64
2021/09/08 09:33:03;;;;;;;14.75;8.70;;;;;;;26.95;46.27;101653.97;4969336;28;124055;-64
2021/09/08 09:35:31;;;;;;;16.75;9.88;;;;;;;27.02;45.75;101650.66;4971107;28;124026;-64
2021/09/08 09:38:04;;;;;;;14.23;9.27;;;;;;;27.10;46.16;101656.16;4970039;28;114936;-65
2021/09/08 09:40:36;;;;;;;14.68;8.98;;;;;;;27.18;45.59;101648.91;4966897;28;114913;-64
2021/09/08 09:43:21;;;;;;;15.20;9.60;;;;;;;27.28;46.03;101648.84;4966634;28;123964;-65
2021/09/08 09:45:49;;;;;;;15.27;9.38;;;;;;;27.42;45.77;101649.28;4970641;28;123951;-66
2021/09/08 09:48:16;;;;;;;15.55;9.23;;;;;;;27.53;45.57;101657.16;4965341;28;114682;-67
2021/09/08 09:50:46;;;;;;;15.15;9.93;;;;;;;27.59;45.17;101632.03;4961606;28;114186;-64
2021/09/08 09:53:18;;;;;;;17.52;9.80;;;;;;;27.65;44.75;101639.56;4968254;28;124253;-64
2021/09/08 09:55:46;;;;;;;17.90;9.02;;;;;;;27.71;44.84;101638.91;4974351;28;123523;-65
2021/09/08 09:58:13;;;;;;;15.32;9.20;;;;;;;27.75;44.82;101634.84;4970085;28;113676;-65
2021/09/08 10:00:41;;;;;;;14.70;9.32;;;;;;;27.83;44.71;101630.44;4972016;28;113787;-64
2021/09/08 10:03:09;;;;;;;14.23;9.73;;;;;;;27.89;44.78;101630.66;4958513;28;124233;-65
2021/09/08 10:05:37;;;;;;;17.35;10.60;;;;;;;27.97;44.43;101629.84;4968377;28;124196;-67
2021/09/08 10:08:06;;;;;;;13.93;9.35;;;;;;;28.04;44.91;101622.72;4970987;28;114008;-65
2021/09/08 10:10:34;;;;;;;15.32;9.48;;;;;;;28.10;44.03;101622.06;4970192;28;113767;-64
2021/09/08 10:13:10;;;;;;;13.30;8.07;;;;;;;28.19;44.38;101614.78;4969568;28;124094;-64
2021/09/08 10:15:38;;;;;;;17.30;9.27;;;;;;;28.29;43.67;101622.78;4968497;22;124562;-63
2021/09/08 10:18:10;;;;;;;15.63;9.77;;;;;;;28.33;43.63;101616.00;4929757;28;114206;-63
2021/09/08 10:20:38;;;;;;;14.55;9.13;;;;;;;28.39;43.67;101614.47;4930944;28;115004;-63
2021/09/08 10:23:10;;;;;;;15.25;9.00;;;;;;;28.46;43.71;101610.94;4931543;28;124787;-63
2021/09/08 10:25:43;;;;;;;16.05;9.70;;;;;;;28.57;43.36;101607.03;4928635;28;123755;-63
2021/09/08 10:28:15;;;;;;;13.25;9.57;;;;;;;28.65;43.13;101596.16;4933148;28;114708;-63
2021/09/08 10:30:43;;;;;;;14.30;9.18;;;;;;;28.73;43.38;101584.41;4927906;28;113864;-63
2021/09/08 10:33:11;;;;;;;14.27;8.88;;;;;;;28.82;43.36;101583.38;4931539;28;124060;-63
2021/09/08 10:35:40;;;;;;;13.88;8.80;;;;;;;28.92;42.95;101584.03;4931857;28;124322;-63
2021/09/08 10:38:17;;;;;;;13.10;8.70;;;;;;;28.97;42.77;101579.94;4932622;28;114485;-63
2021/09/08 10:40:46;;;;;;;13.48;8.73;;;;;;;29.02;42.32;101572.94;4928569;28;113992;-63
2021/09/08 10:43:14;;;;;;;12.50;8.45;;;;;;;29.07;42.30;101573.28;4932679;28;124593;-63
2021/09/08 10:45:50;;;;;;;14.25;9.15;;;;;;;29.11;42.24;101571.06;4928787;28;124804;-63
2021/09/08 10:48:39;;;;;;;13.00;8.88;;;;;;;29.17;42.45;101564.09;4925302;28;114357;-63
2021/09/08 10:51:10;;;;;;;12.75;9.07;;;;;;;29.24;42.36;101560.47;4928068;28;114403;-63
2021/09/08 10:53:38;;;;;;;13.50;8.75;;;;;;;29.37;42.40;101559.09;4931554;28;123847;-63
2021/09/08 10:56:08;;;;;;;13.38;8.65;;;;;;;29.49;41.97;101546.75;4925319;28;123799;-63
2021/09/08 10:58:55;;;;;;;13.50;9.43;;;;;;;29.58;41.38;101551.16;4929937;28;114703;-63
2021/09/08 11:01:24;;;;;;;12.70;7.68;;;;;;;29.63;41.66;101542.41;4933641;28;113776;-63
2021/09/08 11:03:52;;;;;;;14.35;8.45;;;;;;;29.70;41.64;101544.28;4925402;28;124809;-66
2021/09/08 11:06:34;;;;;;;13.50;7.90;;;;;;;29.78;41.57;101535.22;4927390;28;123638;-63
2021/09/08 11:09:04;;;;;;;13.80;8.52;;;;;;;29.88;41.21;101545.94;4924808;28;115418;-63